Time;durP1;ratioP1;P1;durP2;ratioP2;P2;SDS_P1;SDS_P2;PMS_P1;PMS_P2;Temp;Humidity;BMP_temperature;BMP_pressure;BME280_temperature;BME280_humidity;BME280_pressure;Samples;Min_cycle;Max_cycle;Signal;HPM_P1;HPM_P2
2023/07/07 00:01:47;;;;;;;5.25;3.75;;;;;;;18.58;68.66;100035.94;5072279;28;20029;-80
2023/07/07 00:04:12;;;;;;;11.45;3.92;;;;;;;18.61;68.57;100041.00;5071972;28;20036;-80
2023/07/07 00:06:38;;;;;;;4.68;3.40;;;;;;;18.49;68.59;100021.63;5071616;28;20036;-80
2023/07/07 00:09:03;;;;;;;5.90;3.75;;;;;;;18.59;68.50;100040.28;5072080;28;20020;-80
2023/07/07 00:11:29;;;;;;;7.10;3.70;;;;;;;18.55;68.65;100029.13;5071674;28;20027;-80
2023/07/07 00:13:54;;;;;;;3.95;3.38;;;;;;;18.59;69.16;100037.66;5072409;28;20468;-80
2023/07/07 00:16:22;;;;;;;4.10;3.58;;;;;;;18.50;69.06;100036.53;5071644;28;20028;-80
2023/07/07 00:18:49;;;;;;;6.60;3.83;;;;;;;18.31;69.35;100008.00;5071974;28;20029;-80
2023/07/07 00:21:14;;;;;;;4.47;3.65;;;;;;;18.27;69.01;100016.25;5071906;28;20037;-81
2023/07/07 00:23:40;;;;;;;6.63;3.75;;;;;;;18.29;69.31;100028.41;5071776;28;20028;-80
2023/07/07 00:26:07;;;;;;;7.45;3.95;;;;;;;18.27;69.30;100032.09;5071826;28;20025;-80
2023/07/07 00:28:34;;;;;;;5.15;3.80;;;;;;;18.32;69.56;100035.22;5071811;28;20020;-80
2023/07/07 00:31:00;;;;;;;7.38;4.20;;;;;;;18.25;69.64;100024.28;5071567;28;20028;-80
2023/07/07 00:33:26;;;;;;;4.22;3.63;;;;;;;18.38;69.17;100035.63;5071482;28;20495;-80
2023/07/07 00:35:52;;;;;;;8.00;4.57;;;;;;;18.27;69.42;100022.38;5071644;28;20047;-80
2023/07/07 00:38:18;;;;;;;8.68;4.60;;;;;;;18.36;69.38;100039.31;5071908;28;20464;-80
2023/07/07 00:40:44;;;;;;;4.18;3.78;;;;;;;18.35;69.90;100041.13;5071546;28;20025;-80
2023/07/07 00:43:14;;;;;;;5.68;4.05;;;;;;;18.33;70.29;100050.94;5071548;28;20039;-80
2023/07/07 00:45:39;;;;;;;7.15;5.30;;;;;;;18.24;70.34;100034.94;5071384;28;20024;-80
2023/07/07 00:48:09;;;;;;;6.38;4.30;;;;;;;18.16;70.83;100032.84;5071559;28;20032;-80
2023/07/07 00:50:39;;;;;;;8.88;4.28;;;;;;;18.22;71.10;100048.25;5071204;28;20064;-80
2023/07/07 00:53:05;;;;;;;6.07;3.95;;;;;;;18.04;71.69;100021.41;5071852;28;20078;-80
2023/07/07 00:55:37;;;;;;;5.22;3.88;;;;;;;18.11;71.70;100040.25;5071375;28;20032;-80
2023/07/07 00:58:06;;;;;;;7.10;4.50;;;;;;;18.11;71.75;100045.50;5071649;28;20025;-80
2023/07/07 01:00:38;;;;;;;5.25;4.28;;;;;;;18.11;72.10;100049.00;5071448;28;20067;-80
2023/07/07 01:03:19;;;;;;;7.43;4.38;;;;;;;18.03;72.40;100040.78;5071374;28;20476;-82
2023/07/07 01:05:47;;;;;;;8.63;4.82;;;;;;;17.98;72.53;100035.00;5071357;28;20112;-82
2023/07/07 01:08:12;;;;;;;6.88;4.50;;;;;;;17.92;73.27;100035.47;5074287;28;20032;-80
2023/07/07 01:10:38;;;;;;;9.25;4.63;;;;;;;18.04;73.30;100053.03;5074777;28;20103;-79
2023/07/07 01:13:04;;;;;;;5.57;4.07;;;;;;;18.02;73.39;100054.09;5073504;28;20024;-81
2023/07/07 01:15:37;;;;;;;5.78;4.43;;;;;;;18.00;73.65;100056.84;5074557;28;20067;-82
2023/07/07 01:18:21;;;;;;;6.68;4.80;;;;;;;17.94;73.89;100059.91;5075082;28;20453;-82
2023/07/07 01:21:03;;;;;;;10.05;4.65;;;;;;;17.93;73.97;100061.69;5074542;28;20035;-81
2023/07/07 01:23:47;;;;;;;6.57;4.43;;;;;;;17.84;74.11;100062.34;5074410;28;20131;-82
2023/07/07 01:26:53;;;;;;;5.30;4.45;;;;;;;17.80;74.09;100055.59;5074685;28;20025;-80
2023/07/07 01:29:59;;;;;;;7.47;5.10;;;;;;;17.73;74.03;100054.31;5074600;28;20036;-80
2023/07/07 01:32:33;;;;;;;7.82;4.47;;;;;;;17.65;74.32;100054.84;5074405;28;20047;-81
2023/07/07 01:35:07;;;;;;;5.38;3.97;;;;;;;17.61;74.22;100057.78;5074771;28;20035;-80
2023/07/07 01:37:32;;;;;;;6.78;4.32;;;;;;;17.44;74.38;100038.75;5074204;28;20045;-82
2023/07/07 01:39:59;;;;;;;6.13;4.60;;;;;;;17.39;74.36;100042.63;5074389;28;20029;-82
2023/07/07 01:42:43;;;;;;;6.25;4.57;;;;;;;17.45;74.11;100052.75;5074445;28;20039;-80
2023/07/07 01:45:23;;;;;;;6.18;4.40;;;;;;;17.56;73.89;100065.16;5074701;28;20088;-80
2023/07/07 01:48:34;;;;;;;6.28;4.88;;;;;;;17.56;73.52;100075.72;5074257;28;20028;-81
2023/07/07 01:51:01;;;;;;;6.40;3.80;;;;;;;17.53;73.65;100078.53;5071551;28;20082;-80
2023/07/07 01:53:29;;;;;;;5.70;4.60;;;;;;;17.52;73.39;100066.34;5071542;28;20031;-80
2023/07/07 01:55:58;;;;;;;5.05;3.53;;;;;;;17.34;73.17;100024.53;5071791;28;20036;-80
2023/07/07 01:58:26;;;;;;;4.85;3.75;;;;;;;17.46;74.42;100050.00;5071512;28;20028;-80
2023/07/07 02:00:55;;;;;;;4.75;3.78;;;;;;;17.45;75.67;100060.66;5071398;28;20047;-80
2023/07/07 02:03:22;;;;;;;4.80;3.67;;;;;;;17.28;76.44;100040.75;5071374;28;20032;-80
2023/07/07 02:05:48;;;;;;;4.70;3.95;;;;;;;17.18;76.38;100035.25;5071136;28;20028;-80
2023/07/07 02:08:14;;;;;;;7.25;3.50;;;;;;;17.33;76.95;100074.66;5071259;28;20051;-80
2023/07/07 02:10:39;;;;;;;5.00;4.28;;;;;;;17.26;77.20;100076.00;5071030;28;20024;-80
2023/07/07 02:13:05;;;;;;;6.43;3.92;;;;;;;16.90;77.41;100031.03;5071186;28;20039;-80
2023/07/07 02:15:30;;;;;;;8.18;4.45;;;;;;;16.99;77.94;100053.25;5070909;28;20688;-80
2023/07/07 02:17:56;;;;;;;5.28;4.38;;;;;;;16.90;78.85;100059.13;5070886;28;20044;-80
2023/07/07 02:20:22;;;;;;;4.10;3.67;;;;;;;16.82;79.38;100075.41;5070978;28;20075;-80
2023/07/07 02:22:47;;;;;;;5.82;3.88;;;;;;;16.64;79.26;100053.75;5070687;28;20078;-80
2023/07/07 02:25:13;;;;;;;4.80;3.90;;;;;;;16.73;79.62;100075.13;5070926;28;20093;-80
2023/07/07 02:27:38;;;;;;;4.93;4.10;;;;;;;16.53;79.81;100047.50;5072166;28;20070;-80
2023/07/07 02:30:04;;;;;;;6.97;4.05;;;;;;;16.49;79.49;100048.63;5073547;28;20032;-80
2023/07/07 02:32:29;;;;;;;5.07;3.90;;;;;;;16.52;79.98;100069.44;5073081;28;20040;-80
2023/07/07 02:34:56;;;;;;;5.25;3.90;;;;;;;16.31;80.55;100045.41;5074038;28;20178;-80
2023/07/07 02:37:23;;;;;;;4.85;4.38;;;;;;;16.50;80.32;100074.81;5073509;28;20050;-80
2023/07/07 02:39:49;;;;;;;4.13;3.72;;;;;;;16.29;81.11;100052.53;5073311;28;20455;-80
2023/07/07 02:42:15;;;;;;;5.20;3.83;;;;;;;16.33;81.04;100061.91;5073405;28;20039;-80
2023/07/07 02:44:40;;;;;;;5.63;4.25;;;;;;;16.41;81.23;100075.41;5073205;28;20381;-80
2023/07/07 02:47:07;;;;;;;4.30;3.50;;;;;;;16.28;81.25;100059.59;5073140;28;20024;-80
2023/07/07 02:49:33;;;;;;;8.00;4.50;;;;;;;16.36;80.91;100070.47;5072989;28;20020;-80
2023/07/07 02:51:59;;;;;;;5.40;4.35;;;;;;;16.25;80.90;100051.88;5073201;28;20043;-80
2023/07/07 02:54:24;;;;;;;6.65;4.60;;;;;;;16.12;80.91;100050.97;5073221;28;20033;-80
2023/07/07 02:56:49;;;;;;;5.00;4.07;;;;;;;16.30;80.96;100077.88;5072851;28;20050;-80
2023/07/07 02:59:15;;;;;;;6.85;4.88;;;;;;;16.28;81.17;100079.78;5072968;28;20020;-80
2023/07/07 03:01:44;;;;;;;5.35;4.13;;;;;;;16.33;80.82;100080.31;5072444;28;20025;-80
2023/07/07 03:04:10;;;;;;;6.40;4.13;;;;;;;16.27;80.87;100073.69;5087436;28;20035;-80
2023/07/07 03:06:36;;;;;;;6.20;3.90;;;;;;;16.32;80.77;100078.63;5092973;28;20028;-80
2023/07/07 03:09:01;;;;;;;5.00;4.00;;;;;;;16.32;80.94;100068.97;5092948;28;20020;-80
2023/07/07 03:11:26;;;;;;;7.68;4.07;;;;;;;16.41;80.45;100078.88;5092938;28;20031;-80
2023/07/07 03:13:52;;;;;;;5.50;3.60;;;;;;;16.46;80.17;100089.09;5092860;28;20028;-80
2023/07/07 03:16:31;;;;;;;6.72;3.78;;;;;;;16.46;80.21;100086.47;5092767;28;20038;-80
2023/07/07 03:18:59;;;;;;;5.50;3.90;;;;;;;16.60;80.21;100102.22;5093087;28;20020;-80
2023/07/07 03:21:25;;;;;;;4.72;3.58;;;;;;;16.52;79.96;100086.09;5092785;28;20020;-80
2023/07/07 03:23:51;;;;;;;5.82;3.67;;;;;;;16.64;79.69;100108.13;5092540;28;20038;-82
2023/07/07 03:26:18;;;;;;;8.07;4.07;;;;;;;16.68;78.99;100109.59;5092904;28;20028;-81
2023/07/07 03:28:44;;;;;;;4.38;3.60;;;;;;;16.78;78.38;100120.44;5092279;28;20024;-81
2023/07/07 03:31:12;;;;;;;7.88;3.78;;;;;;;16.83;78.30;100108.66;5092023;28;20383;-81
2023/07/07 03:33:43;;;;;;;8.55;4.22;;;;;;;16.82;77.59;100099.09;5092380;28;20431;-80
2023/07/07 03:36:10;;;;;;;4.78;3.95;;;;;;;16.94;77.31;100110.59;5092284;28;20047;-81
2023/07/07 03:38:37;;;;;;;5.00;4.15;;;;;;;17.02;76.71;100115.31;5092319;28;20590;-81
2023/07/07 03:41:02;;;;;;;4.35;3.60;;;;;;;16.93;76.64;100090.47;5092394;28;20124;-81
2023/07/07 03:43:28;;;;;;;4.93;3.78;;;;;;;17.11;76.27;100115.59;5092306;28;20040;-81
2023/07/07 03:45:53;;;;;;;5.63;3.95;;;;;;;17.03;75.91;100099.47;5092293;28;20024;-81
2023/07/07 03:48:19;;;;;;;5.68;3.83;;;;;;;17.09;75.79;100095.56;5092646;28;20113;-81
2023/07/07 03:50:57;;;;;;;6.00;4.03;;;;;;;17.01;75.38;100079.44;5092385;28;20364;-81
2023/07/07 03:53:23;;;;;;;4.70;3.78;;;;;;;17.26;75.20;100111.06;5092455;28;20048;-80
2023/07/07 03:55:48;;;;;;;5.75;4.07;;;;;;;17.35;75.09;100115.72;5091942;28;20081;-81
2023/07/07 03:58:14;;;;;;;5.15;3.72;;;;;;;17.34;74.95;100105.31;5092467;28;20031;-81
2023/07/07 04:00:39;;;;;;;5.05;4.13;;;;;;;17.57;74.54;100127.44;5091979;28;20038;-81
2023/07/07 04:03:05;;;;;;;5.57;4.18;;;;;;;17.70;74.24;100137.03;5092030;28;20095;-81
2023/07/07 04:05:30;;;;;;;8.32;4.15;;;;;;;17.80;73.75;100133.81;5092077;28;20016;-80
2023/07/07 04:07:55;;;;;;;4.05;3.50;;;;;;;17.77;73.87;100113.78;5091827;28;20104;-81
2023/07/07 04:10:20;;;;;;;6.53;4.13;;;;;;;17.84;73.56;100109.78;5092067;28;20107;-80
2023/07/07 04:12:46;;;;;;;4.65;4.05;;;;;;;18.00;73.27;100114.81;5092080;28;20060;-81
2023/07/07 04:15:11;;;;;;;6.10;4.20;;;;;;;18.23;72.84;100112.34;5092426;28;20063;-81
2023/07/07 04:17:37;;;;;;;4.43;3.65;;;;;;;18.67;71.81;100130.28;5091949;28;20024;-81
2023/07/07 04:20:04;;;;;;;5.53;3.83;;;;;;;19.08;70.67;100127.25;5092181;28;20031;-80
2023/07/07 04:22:30;;;;;;;4.00;3.60;;;;;;;19.54;69.46;100125.59;5091919;28;20047;-81
2023/07/07 04:25:13;;;;;;;5.95;3.60;;;;;;;20.39;67.45;100136.56;5090815;28;20064;-81
2023/07/07 04:27:39;;;;;;;4.18;3.45;;;;;;;21.39;64.76;100103.66;5091428;28;20061;-81
2023/07/07 04:30:05;;;;;;;5.03;4.10;;;;;;;23.12;61.24;100132.75;5091831;28;20562;-80
2023/07/07 04:32:32;;;;;;;7.55;3.85;;;;;;;24.38;57.66;100127.13;5091659;28;20032;-81
2023/07/07 04:34:59;;;;;;;4.60;3.70;;;;;;;25.26;55.82;100138.88;5091170;28;20024;-81
2023/07/07 04:37:25;;;;;;;4.47;3.42;;;;;;;25.20;55.56;100104.84;5091791;28;20158;-81
2023/07/07 04:39:50;;;;;;;5.25;3.55;;;;;;;24.95;57.16;100127.75;5091476;28;20016;-81
2023/07/07 04:42:16;;;;;;;6.00;3.92;;;;;;;24.55;57.48;100122.84;5094581;28;20032;-81
2023/07/07 04:44:41;;;;;;;5.03;3.72;;;;;;;24.47;59.02;100155.53;5095216;28;20046;-81
2023/07/07 04:47:06;;;;;;;5.22;3.95;;;;;;;24.36;59.11;100137.91;5095300;28;20032;-81
2023/07/07 04:49:32;;;;;;;5.10;3.17;;;;;;;24.70;57.06;100158.63;5095469;28;20020;-81
2023/07/07 04:51:57;;;;;;;3.88;3.13;;;;;;;25.30;55.43;100134.91;5095003;28;20093;-81
2023/07/07 04:54:23;;;;;;;2.85;2.53;;;;;;;26.85;52.70;100137.56;5095019;28;20020;-81
2023/07/07 04:56:48;;;;;;;5.07;3.20;;;;;;;27.93;50.50;100140.88;5093585;28;20051;-81
2023/07/07 04:59:13;;;;;;;5.82;3.58;;;;;;;28.52;49.38;100165.44;5095565;28;20024;-81
2023/07/07 05:01:40;;;;;;;3.63;3.25;;;;;;;28.22;50.23;100171.56;5095053;28;20097;-81
2023/07/07 05:04:07;;;;;;;6.15;4.05;;;;;;;27.34;50.74;100145.63;5095310;28;20104;-81
2023/07/07 05:06:35;;;;;;;5.63;3.78;;;;;;;26.82;51.94;100152.06;5095195;28;20031;-81
2023/07/07 05:09:01;;;;;;;4.75;3.53;;;;;;;26.29;52.84;100136.34;5095206;28;20123;-82
2023/07/07 05:11:28;;;;;;;5.15;3.78;;;;;;;26.37;52.60;100171.09;5095403;28;20059;-82
2023/07/07 05:13:53;;;;;;;5.28;3.28;;;;;;;26.65;52.48;100168.22;5095107;28;20020;-82
2023/07/07 05:16:22;;;;;;;3.72;3.30;;;;;;;27.31;51.37;100176.22;5095041;28;20032;-81
2023/07/07 05:18:47;;;;;;;4.35;3.70;;;;;;;28.46;49.93;100176.88;5095070;28;20496;-82
2023/07/07 05:21:15;;;;;;;4.07;3.47;;;;;;;29.06;48.56;100178.06;5095002;28;20051;-81
2023/07/07 05:23:40;;;;;;;4.68;3.63;;;;;;;28.47;48.78;100175.03;5094874;28;20032;-82
2023/07/07 05:26:06;;;;;;;3.75;3.38;;;;;;;27.93;49.74;100172.16;5093748;28;20032;-82
2023/07/07 05:28:32;;;;;;;5.15;3.30;;;;;;;27.69;50.86;100186.41;5094957;28;20099;-82
2023/07/07 05:30:58;;;;;;;5.85;3.42;;;;;;;27.39;51.48;100186.09;5094558;28;20111;-81
2023/07/07 05:33:23;;;;;;;4.97;3.08;;;;;;;27.31;51.80;100184.25;5094882;28;20107;-82
2023/07/07 05:35:51;;;;;;;5.07;3.72;;;;;;;27.42;51.42;100171.53;5094076;28;20035;-81
2023/07/07 05:38:18;;;;;;;4.18;3.40;;;;;;;28.30;50.57;100172.38;5094882;28;20472;-81
2023/07/07 05:40:45;;;;;;;6.15;3.80;;;;;;;29.49;48.04;100189.94;5094550;28;20046;-82
2023/07/07 05:43:12;;;;;;;4.72;3.47;;;;;;;29.54;48.41;100202.84;5094451;28;20379;-81
2023/07/07 05:45:37;;;;;;;3.92;3.53;;;;;;;28.78;49.31;100183.06;5094407;28;20115;-82
2023/07/07 05:48:03;;;;;;;5.97;3.83;;;;;;;27.94;50.87;100174.69;5093811;28;20527;-81
2023/07/07 05:50:28;;;;;;;5.72;3.92;;;;;;;27.47;51.96;100183.38;5094112;28;20035;-82
2023/07/07 05:52:53;;;;;;;6.15;4.07;;;;;;;27.11;53.36;100182.91;5093844;28;20467;-81
2023/07/07 05:55:28;;;;;;;4.22;3.80;;;;;;;27.13;54.22;100188.06;5094400;28;20368;-81
2023/07/07 05:57:54;;;;;;;6.20;4.68;;;;;;;26.94;54.20;100198.03;5093975;28;20044;-81
2023/07/07 06:00:19;;;;;;;4.82;4.43;;;;;;;26.93;54.74;100187.53;5093039;28;20134;-81
2023/07/07 06:02:45;;;;;;;5.07;4.13;;;;;;;27.04;54.16;100193.38;5093890;28;20119;-81
2023/07/07 06:05:10;;;;;;;5.25;4.50;;;;;;;27.21;54.65;100215.66;5093984;28;20020;-82
2023/07/07 06:07:35;;;;;;;5.82;4.15;;;;;;;27.11;53.98;100201.59;5094262;28;20468;-82
2023/07/07 06:10:01;;;;;;;6.72;3.58;;;;;;;27.33;53.99;100211.66;5094156;28;20051;-82
2023/07/07 06:12:26;;;;;;;5.93;4.40;;;;;;;27.29;54.19;100196.09;5093987;28;20044;-82
2023/07/07 06:14:51;;;;;;;6.30;4.45;;;;;;;27.53;54.53;100206.00;5093696;28;20361;-82
2023/07/07 06:17:17;;;;;;;7.10;4.78;;;;;;;27.58;53.67;100207.16;5093883;28;20421;-82
2023/07/07 06:19:42;;;;;;;4.95;4.07;;;;;;;27.76;52.43;100230.25;5093642;28;20499;-82
2023/07/07 06:22:08;;;;;;;5.10;4.00;;;;;;;27.80;52.48;100207.50;5094189;28;20455;-83
2023/07/07 06:24:33;;;;;;;4.20;3.85;;;;;;;27.95;52.64;100237.94;5093726;28;20460;-82
2023/07/07 06:26:58;;;;;;;5.72;4.43;;;;;;;28.24;51.67;100240.06;5093346;28;20024;-82
2023/07/07 06:29:24;;;;;;;5.15;4.65;;;;;;;28.17;51.01;100241.72;5093590;28;20096;-83
2023/07/07 06:31:49;;;;;;;5.45;4.10;;;;;;;28.39;51.44;100239.34;5093083;28;20109;-83
2023/07/07 06:34:14;;;;;;;7.65;4.47;;;;;;;28.55;50.22;100217.88;5093271;28;20486;-82
2023/07/07 06:36:40;;;;;;;5.38;4.40;;;;;;;29.36;50.00;100246.09;5093490;28;20509;-83
2023/07/07 06:39:05;;;;;;;4.38;3.97;;;;;;;30.45;48.17;100227.81;5093141;28;20024;-81
2023/07/07 06:41:31;;;;;;;4.50;4.10;;;;;;;31.59;46.90;100237.00;5093781;28;20109;-82
2023/07/07 06:43:56;;;;;;;5.05;4.22;;;;;;;32.49;45.76;100233.53;5093301;28;20033;-82
2023/07/07 06:46:24;;;;;;;4.70;4.30;;;;;;;33.17;44.88;100230.88;5093303;28;20024;-81
2023/07/07 06:48:50;;;;;;;4.68;4.25;;;;;;;34.13;43.34;100246.72;5093059;28;20472;-81
2023/07/07 06:51:15;;;;;;;5.50;4.40;;;;;;;34.44;42.33;100242.50;5093474;28;20028;-81
2023/07/07 06:53:40;;;;;;;5.60;4.25;;;;;;;34.90;41.40;100253.16;5093167;28;20078;-82
2023/07/07 06:56:06;;;;;;;6.38;4.15;;;;;;;36.38;40.82;100241.81;5092077;28;20020;-82
2023/07/07 06:58:33;;;;;;;3.88;3.50;;;;;;;37.45;38.92;100252.97;5093540;28;20031;-82
2023/07/07 07:00:58;;;;;;;5.30;3.38;;;;;;;37.77;37.88;100257.28;5092443;28;20437;-81
2023/07/07 07:03:24;;;;;;;4.13;3.53;;;;;;;39.15;36.79;100261.91;5092750;28;20028;-81
2023/07/07 07:05:50;;;;;;;4.22;3.58;;;;;;;40.01;36.11;100247.25;5091875;28;20035;-82
2023/07/07 07:08:15;;;;;;;4.82;3.70;;;;;;;40.35;35.52;100248.84;5091481;28;20075;-82
2023/07/07 07:10:40;;;;;;;5.13;3.58;;;;;;;40.32;35.70;100248.53;5092965;28;20103;-82
2023/07/07 07:13:07;;;;;;;4.80;3.42;;;;;;;40.90;35.56;100247.88;5092569;28;20115;-82
2023/07/07 07:15:33;;;;;;;3.92;3.60;;;;;;;41.95;33.74;100274.00;5092699;28;20495;-81
2023/07/07 07:17:58;;;;;;;4.70;3.22;;;;;;;41.80;33.71;100267.38;5092454;28;20054;-82
2023/07/07 07:20:24;;;;;;;4.55;3.67;;;;;;;40.86;33.78;100268.59;5093126;28;20023;-82
2023/07/07 07:22:49;;;;;;;3.95;2.90;;;;;;;41.03;33.85;100270.44;5092349;28;20050;-82
2023/07/07 07:25:15;;;;;;;3.92;3.53;;;;;;;41.20;33.89;100279.34;5092883;28;20385;-81
2023/07/07 07:27:40;;;;;;;4.22;3.47;;;;;;;41.26;33.73;100264.66;5092736;28;20581;-82
2023/07/07 07:30:07;;;;;;;5.10;3.60;;;;;;;41.75;33.88;100264.53;5092506;28;20032;-82
2023/07/07 07:32:33;;;;;;;3.83;3.47;;;;;;;42.17;33.27;100274.69;5093046;28;20028;-82
2023/07/07 07:34:59;;;;;;;3.92;2.85;;;;;;;42.23;32.74;100276.41;5092434;28;20020;-82
2023/07/07 07:37:25;;;;;;;3.10;2.90;;;;;;;42.73;32.61;100271.41;5092519;28;20040;-82
2023/07/07 07:39:51;;;;;;;3.13;2.83;;;;;;;42.75;31.55;100269.25;5092168;28;20103;-82
2023/07/07 07:42:16;;;;;;;3.40;3.10;;;;;;;43.15;31.67;100271.25;5092302;28;20080;-82
2023/07/07 07:44:42;;;;;;;3.53;2.90;;;;;;;43.03;31.56;100267.94;5092404;28;20094;-82
2023/07/07 07:47:08;;;;;;;4.95;3.22;;;;;;;42.92;31.62;100249.84;5091931;28;20357;-82
2023/07/07 07:49:34;;;;;;;4.05;3.63;;;;;;;43.39;32.21;100263.34;5092575;28;20028;-82
2023/07/07 07:51:59;;;;;;;3.85;3.20;;;;;;;43.21;31.10;100277.59;5092109;28;20114;-82
2023/07/07 07:54:24;;;;;;;3.60;3.30;;;;;;;42.47;31.87;100259.53;5092350;28;20049;-82
2023/07/07 07:56:51;;;;;;;3.55;3.13;;;;;;;43.04;32.32;100253.16;5091935;28;20051;-82
2023/07/07 07:59:16;;;;;;;3.00;2.80;;;;;;;43.20;32.38;100276.78;5092220;28;20024;-82
2023/07/07 08:01:42;;;;;;;3.55;3.13;;;;;;;43.94;32.17;100278.16;5092010;28;20395;-81
2023/07/07 08:04:07;;;;;;;3.47;3.17;;;;;;;43.26;31.89;100278.41;5092018;28;20468;-82
2023/07/07 08:06:33;;;;;;;3.58;3.28;;;;;;;43.64;31.77;100262.53;5090962;28;20036;-82
2023/07/07 08:08:58;;;;;;;3.70;3.40;;;;;;;43.47;31.94;100273.78;5091860;28;20028;-82
2023/07/07 08:11:42;;;;;;;4.95;3.13;;;;;;;43.42;31.85;100283.91;5092120;28;20039;-82
2023/07/07 08:14:19;;;;;;;3.50;3.20;;;;;;;42.16;32.37;100281.25;5091681;28;20020;-82
2023/07/07 08:16:46;;;;;;;3.63;3.33;;;;;;;41.33;32.75;100278.09;5094832;28;20032;-82
2023/07/07 08:19:11;;;;;;;3.70;3.40;;;;;;;40.17;33.19;100276.44;5096312;28;20108;-82
2023/07/07 08:21:37;;;;;;;3.90;3.13;;;;;;;38.83;34.87;100263.47;5096482;28;20425;-82
2023/07/07 08:24:03;;;;;;;4.43;3.05;;;;;;;37.42;35.21;100258.03;5096178;28;20028;-82
2023/07/07 08:26:28;;;;;;;4.20;3.45;;;;;;;36.25;36.18;100265.56;5096293;28;20036;-82
2023/07/07 08:28:54;;;;;;;6.50;3.28;;;;;;;34.70;37.26;100247.84;5095895;28;20042;-82
2023/07/07 08:31:19;;;;;;;5.40;2.85;;;;;;;33.95;37.84;100268.97;5096496;28;20043;-81
2023/07/07 08:33:48;;;;;;;4.85;3.00;;;;;;;33.53;38.79;100270.22;5096099;28;20020;-81
2023/07/07 08:36:13;;;;;;;5.03;2.88;;;;;;;32.61;39.35;100271.53;5096077;28;20123;-81
2023/07/07 08:38:39;;;;;;;3.70;3.08;;;;;;;31.90;39.75;100250.13;5096452;28;20435;-81
2023/07/07 08:41:04;;;;;;;4.68;2.85;;;;;;;31.32;40.00;100264.72;5096032;28;20411;-81
2023/07/07 08:43:30;;;;;;;3.95;2.90;;;;;;;31.04;40.99;100250.09;5095739;28;20028;-81
2023/07/07 08:46:16;;;;;;;3.35;2.78;;;;;;;31.17;40.97;100273.63;5093692;28;20042;-81
2023/07/07 08:48:52;;;;;;;3.47;2.47;;;;;;;30.75;40.38;100253.66;5093950;28;20024;-81
2023/07/07 08:51:23;;;;;;;4.25;2.83;;;;;;;30.36;40.61;100258.50;5094484;28;20051;-81
2023/07/07 08:54:18;;;;;;;3.25;2.45;;;;;;;30.13;41.11;100255.84;5094304;28;20027;-81
2023/07/07 08:56:52;;;;;;;4.25;2.95;;;;;;;30.15;41.98;100272.66;5094048;28;20028;-81
2023/07/07 08:59:26;;;;;;;4.60;2.88;;;;;;;29.97;42.74;100246.94;5095336;28;20423;-81
2023/07/07 09:02:12;;;;;;;3.90;2.60;;;;;;;29.93;42.54;100232.22;5095390;28;20475;-81
2023/07/07 09:05:10;;;;;;;3.08;2.78;;;;;;;30.02;41.67;100259.84;5095368;28;20376;-81
2023/07/07 09:08:02;;;;;;;3.90;3.03;;;;;;;29.78;42.32;100234.03;5094018;28;20468;-81
2023/07/07 09:10:36;;;;;;;4.18;3.25;;;;;;;29.91;42.42;100258.41;5092289;28;20455;-81
2023/07/07 09:13:17;;;;;;;3.08;2.67;;;;;;;29.96;43.06;100260.53;5094879;28;20486;-81
2023/07/07 09:15:51;;;;;;;3.05;2.78;;;;;;;30.04;43.18;100273.91;5095710;28;20020;-81
2023/07/07 09:18:24;;;;;;;3.33;3.03;;;;;;;29.97;42.99;100265.75;5095310;28;20024;-81
2023/07/07 09:21:01;;;;;;;5.22;3.13;;;;;;;29.83;42.75;100232.50;5095840;28;20078;-81
2023/07/07 09:23:32;;;;;;;3.72;2.97;;;;;;;29.94;43.53;100255.38;5094420;28;20031;-81
2023/07/07 09:26:08;;;;;;;4.80;3.30;;;;;;;29.94;42.65;100265.28;5093575;28;20129;-81
2023/07/07 09:28:43;;;;;;;5.05;3.38;;;;;;;29.79;41.84;100273.28;5093407;28;20088;-81
2023/07/07 09:31:28;;;;;;;4.20;3.00;;;;;;;29.36;42.11;100254.13;5091937;28;20020;-81
2023/07/07 09:33:55;;;;;;;4.07;3.22;;;;;;;29.18;42.69;100241.00;5092797;28;20056;-81
2023/07/07 09:36:42;;;;;;;2.90;2.70;;;;;;;29.24;43.19;100263.59;5090929;28;20054;-81
2023/07/07 09:39:25;;;;;;;3.33;2.78;;;;;;;29.41;43.56;100262.47;5095357;28;20028;-81
2023/07/07 09:42:09;;;;;;;3.70;2.80;;;;;;;29.40;42.98;100235.84;5095044;28;20031;-81
2023/07/07 09:44:57;;;;;;;3.28;2.97;;;;;;;29.53;43.06;100257.53;5095154;28;20028;-81
2023/07/07 09:47:33;;;;;;;3.40;3.08;;;;;;;29.27;43.67;100258.72;5095039;28;20077;-81
2023/07/07 09:50:09;;;;;;;3.50;3.08;;;;;;;29.18;43.47;100259.78;5094304;28;20024;-81
2023/07/07 09:53:09;;;;;;;5.15;3.38;;;;;;;28.92;43.41;100261.94;5094633;28;20451;-81
2023/07/07 09:55:36;;;;;;;5.17;2.77;;;;;;;28.60;43.75;100251.16;5092300;28;20040;-81
2023/07/07 09:58:12;;;;;;;3.25;2.92;;;;;;;28.33;44.47;100240.88;5091415;28;20047;-81
2023/07/07 10:00:39;;;;;;;3.15;2.90;;;;;;;28.24;44.29;100232.00;5092094;28;20058;-81
2023/07/07 10:03:28;;;;;;;3.90;3.17;;;;;;;28.17;44.40;100248.94;5091434;28;20052;-81
2023/07/07 10:05:55;;;;;;;3.45;3.15;;;;;;;28.10;44.97;100268.34;5092057;28;20074;-81
2023/07/07 10:08:21;;;;;;;3.95;3.10;;;;;;;27.79;44.87;100241.47;5091615;28;20028;-81
2023/07/07 10:10:54;;;;;;;3.25;2.95;;;;;;;27.99;45.41;100258.00;5091290;28;20113;-81
2023/07/07 10:13:21;;;;;;;3.22;2.95;;;;;;;27.83;44.18;100237.44;5091269;28;20031;-81
2023/07/07 10:15:51;;;;;;;4.45;2.70;;;;;;;27.89;44.37;100260.00;5091762;28;20390;-81
2023/07/07 10:18:22;;;;;;;3.63;3.00;;;;;;;27.89;44.46;100246.63;5091307;28;20499;-81
2023/07/07 10:20:48;;;;;;;3.20;2.88;;;;;;;28.20;44.32;100256.63;5074543;28;20082;-81
2023/07/07 10:23:14;;;;;;;3.85;3.05;;;;;;;28.39;44.16;100260.78;5091270;28;20059;-81
2023/07/07 10:25:44;;;;;;;4.28;3.00;;;;;;;28.26;44.53;100227.31;5091223;28;20043;-81
2023/07/07 10:28:15;;;;;;;4.00;3.17;;;;;;;28.50;43.82;100239.00;5091128;28;20024;-81
2023/07/07 10:30:41;;;;;;;4.07;2.65;;;;;;;28.54;44.86;100209.00;5061059;28;20232;-81
2023/07/07 10:33:12;;;;;;;4.35;2.90;;;;;;;28.77;44.50;100251.94;5092352;28;20282;-81
2023/07/07 10:35:38;;;;;;;3.13;2.53;;;;;;;28.62;42.90;100245.66;5093599;28;20032;-81
2023/07/07 10:38:05;;;;;;;3.60;2.92;;;;;;;28.54;42.94;100248.38;5093891;28;20062;-81
2023/07/07 10:40:31;;;;;;;2.72;2.40;;;;;;;28.32;43.19;100252.59;5093656;28;20027;-81
2023/07/07 10:42:58;;;;;;;2.85;2.65;;;;;;;28.24;43.23;100250.75;5093726;28;20039;-81
2023/07/07 10:45:24;;;;;;;4.82;2.67;;;;;;;28.15;43.03;100249.13;5093382;28;20058;-81
2023/07/07 10:47:51;;;;;;;5.57;3.97;;;;;;;27.70;42.93;100223.69;5093475;28;20048;-81
2023/07/07 10:50:20;;;;;;;6.97;3.80;;;;;;;27.45;43.23;100216.69;5093124;28;20023;-81
2023/07/07 10:53:11;;;;;;;3.20;2.80;;;;;;;27.54;44.00;100245.94;5093161;28;20462;-81
2023/07/07 10:56:10;;;;;;;4.32;2.40;;;;;;;27.53;44.94;100233.56;5093443;28;20020;-81
2023/07/07 10:58:44;;;;;;;3.38;2.50;;;;;;;27.52;44.43;100249.81;5093087;28;20387;-81
2023/07/07 11:01:31;;;;;;;4.03;2.80;;;;;;;27.34;43.92;100224.00;5093165;28;20028;-81
2023/07/07 11:04:49;;;;;;;2.70;2.50;;;;;;;27.45;44.08;100244.28;5093281;28;20024;-81
2023/07/07 11:07:45;;;;;;;3.58;2.90;;;;;;;27.47;43.90;100247.59;5090644;28;20101;-81
2023/07/07 11:10:29;;;;;;;4.80;2.53;;;;;;;27.28;44.34;100205.13;5090344;28;20016;-81
2023/07/07 11:13:17;;;;;;;3.45;2.60;;;;;;;27.40;44.06;100222.53;5090483;28;20569;-81
2023/07/07 11:15:49;;;;;;;3.10;2.75;;;;;;;27.69;44.83;100235.41;5090408;28;20495;-81
2023/07/07 11:18:53;;;;;;;2.85;2.65;;;;;;;27.92;44.89;100246.28;5090596;28;20500;-81
2023/07/07 11:21:33;;;;;;;2.75;2.28;;;;;;;28.07;44.25;100249.97;5010586;28;20041;-81
2023/07/07 11:24:19;;;;;;;4.80;2.70;;;;;;;28.18;43.72;100256.78;5010711;28;20576;-81
2023/07/07 11:27:06;;;;;;;2.65;2.38;;;;;;;28.04;43.78;100239.59;5010506;28;20038;-81
2023/07/07 11:29:50;;;;;;;3.40;3.10;;;;;;;28.08;44.38;100243.59;5010090;28;20497;-81
2023/07/07 11:32:26;;;;;;;3.00;2.70;;;;;;;28.19;44.38;100254.94;5009948;28;20034;-81
2023/07/07 11:34:57;;;;;;;4.25;2.50;;;;;;;28.28;44.76;100251.25;5010264;28;20026;-81
2023/07/07 11:37:40;;;;;;;2.88;2.65;;;;;;;28.20;44.29;100224.50;5009825;28;20053;-82